Aviation Digital Data Service (ADDS)

Output produced by METARs form (1406 UTC 24 August 2019)
found at http://www.aviationweather.gov/metar/data/
 
METAR text: RPLI 241200Z 17006KT 8000 FEW017CB SCT018 OVC090 25/24 Q1005 RMK A2968 CB NW W/ OCNL LTG
Conditions at: RPLI (LAOAG INTL(PH-AR, PH) observed 1200 UTC 24 August 2019
Temperature: 25.0°C (77°F)
Dewpoint: 24.0°C (75°F) [RH = 94%]
Pressure (altimeter): 29.68 inches Hg (1005.0 mb)
Winds: from the S (170 degrees) at 7 MPH (6 knots; 3.1 m/s)
Visibility: 5 miles ( 8 km)
Ceiling: 9000 feet AGL
Clouds: few clouds at 1700 feet AGL
scattered clouds at 1800 feet AGL
overcast cloud deck at 9000 feet AGL
Weather: no significant weather observed at this time

METAR text: RPLI 241100Z 19010KT 8000 -RA BKN018 OVC080 25/24 Q1005 RMK A2968
Conditions at: RPLI (LAOAG INTL(PH-AR, PH) observed 1100 UTC 24 August 2019
Temperature: 25.0°C (77°F)
Dewpoint: 24.0°C (75°F) [RH = 94%]
Pressure (altimeter): 29.68 inches Hg (1005.0 mb)
Winds: from the S (190 degrees) at 12 MPH (10 knots; 5.1 m/s)
Visibility: 5 miles ( 8 km)
Ceiling: 1800 feet AGL
Clouds: broken clouds at 1800 feet AGL
overcast cloud deck at 8000 feet AGL
Weather: -RA  (light rain)

METAR text: RPLI 241000Z 17008KT 5000 -RA BKN018 OVC080 25/25 Q1005 RMK A2968
Conditions at: RPLI (LAOAG INTL(PH-AR, PH) observed 1000 UTC 24 August 2019
Temperature: 25.0°C (77°F)
Dewpoint: 25.0°C (77°F) [RH = 100%]
Pressure (altimeter): 29.68 inches Hg (1005.0 mb)
Winds: from the S (170 degrees) at 9 MPH (8 knots; 4.1 m/s)
Visibility: 3 miles ( 5 km)
Ceiling: 1800 feet AGL
Clouds: broken clouds at 1800 feet AGL
overcast cloud deck at 8000 feet AGL
Weather: -RA  (light rain)

METAR text: RPLI 240900Z 27009G20KT 230V320 1600 +RA FEW017CB SCT018 OVC080 24/23 Q1005 RMK A2968 CB OHD
Conditions at: RPLI (LAOAG INTL(PH-AR, PH) observed 0900 UTC 24 August 2019
Temperature: 24.0°C (75°F)
Dewpoint: 23.0°C (73°F) [RH = 94%]
Pressure (altimeter): 29.68 inches Hg (1005.0 mb)
Winds: from the W (270 degrees) at 10 MPH (9 knots; 4.6 m/s)
gusting to 23 MPH (20 knots; 10.3 m/s)
Visibility: 0.99 miles (1.59 km)
Ceiling: 8000 feet AGL
Clouds: few clouds at 1700 feet AGL
scattered clouds at 1800 feet AGL
overcast cloud deck at 8000 feet AGL
Weather: +RA  (heavy rain)

METAR text: RPLI 240800Z VRB01KT 4000 -RA SCT018 OVC080 26/25 Q1004 RMK A2965
Conditions at: RPLI (LAOAG INTL(PH-AR, PH) observed 0800 UTC 24 August 2019
Temperature: 26.0°C (79°F)
Dewpoint: 25.0°C (77°F) [RH = 94%]
Pressure (altimeter): 29.65 inches Hg (1004.0 mb)
Winds: variable direction winds at 1 MPH (1 knots; 0.5 m/s)
Visibility: 2.49 miles (4.01 km)
Ceiling: 8000 feet AGL
Clouds: scattered clouds at 1800 feet AGL
overcast cloud deck at 8000 feet AGL
Weather: -RA  (light rain)

METAR text: RPLI 240700Z 18009KT 5000 -RA SCT018 BKN080 27/25 Q1003 RMK A2962
Conditions at: RPLI (LAOAG INTL(PH-AR, PH) observed 0700 UTC 24 August 2019
Temperature: 27.0°C (81°F)
Dewpoint: 25.0°C (77°F) [RH = 89%]
Pressure (altimeter): 29.62 inches Hg (1003.0 mb)
Winds: from the S (180 degrees) at 10 MPH (9 knots; 4.6 m/s)
Visibility: 3 miles ( 5 km)
Ceiling: 8000 feet AGL
Clouds: scattered clouds at 1800 feet AGL
broken clouds at 8000 feet AGL
Weather: -RA  (light rain)

METAR text: RPLI 240600Z 19010KT 4000 -RA SCT018 BKN090 27/25 Q1003 RMK A2962
Conditions at: RPLI (LAOAG INTL(PH-AR, PH) observed 0600 UTC 24 August 2019
Temperature: 27.0°C (81°F)
Dewpoint: 25.0°C (77°F) [RH = 89%]
Pressure (altimeter): 29.62 inches Hg (1003.0 mb)
Winds: from the S (190 degrees) at 12 MPH (10 knots; 5.1 m/s)
Visibility: 2.49 miles (4.01 km)
Ceiling: 9000 feet AGL
Clouds: scattered clouds at 1800 feet AGL
broken clouds at 9000 feet AGL
Weather: -RA  (light rain)

METAR text: RPLI 240500Z 21009KT 180V240 3000 -RA FEW018 BKN090 27/25 Q1003 RMK A2962
Conditions at: RPLI (LAOAG INTL(PH-AR, PH) observed 0500 UTC 24 August 2019
Temperature: 27.0°C (81°F)
Dewpoint: 25.0°C (77°F) [RH = 89%]
Pressure (altimeter): 29.62 inches Hg (1003.0 mb)
Winds: from the SSW (210 degrees) at 10 MPH (9 knots; 4.6 m/s)
Visibility: 1.86 miles (2.99 km)
Ceiling: 9000 feet AGL
Clouds: few clouds at 1800 feet AGL
broken clouds at 9000 feet AGL
Weather: -RA  (light rain)

METAR text: RPLI 240400Z 20014KT 3000 -RA FEW017CB SCT018 OVC080 27/25 Q1003 RMK A2962 CB NW
Conditions at: RPLI (LAOAG INTL(PH-AR, PH) observed 0400 UTC 24 August 2019
Temperature: 27.0°C (81°F)
Dewpoint: 25.0°C (77°F) [RH = 89%]
Pressure (altimeter): 29.62 inches Hg (1003.0 mb)
Winds: from the SSW (200 degrees) at 16 MPH (14 knots; 7.2 m/s)
Visibility: 1.86 miles (2.99 km)
Ceiling: 8000 feet AGL
Clouds: few clouds at 1700 feet AGL
scattered clouds at 1800 feet AGL
overcast cloud deck at 8000 feet AGL
Weather: -RA  (light rain)

METAR text: RPLI 240300Z 20011KT 3000 -RA FEW017CB SCT018 OVC080 26/25 Q1002 RERA RMK A2959 CB W/NW
Conditions at: RPLI (LAOAG INTL(PH-AR, PH) observed 0300 UTC 24 August 2019
Temperature: 26.0°C (79°F)
Dewpoint: 25.0°C (77°F) [RH = 94%]
Pressure (altimeter): 29.59 inches Hg (1002.0 mb)
Winds: from the SSW (200 degrees) at 13 MPH (11 knots; 5.7 m/s)
Visibility: 1.86 miles (2.99 km)
Ceiling: 8000 feet AGL
Clouds: few clouds at 1700 feet AGL
scattered clouds at 1800 feet AGL
overcast cloud deck at 8000 feet AGL
Weather: -RA  (light rain)

METAR text: RPLI 240200Z 19014KT 2000 RA FEW017CB SCT018 OVC080 26/25 Q1003 RETS RMK A2962 CB N/W
Conditions at: RPLI (LAOAG INTL(PH-AR, PH) observed 0200 UTC 24 August 2019
Temperature: 26.0°C (79°F)
Dewpoint: 25.0°C (77°F) [RH = 94%]
Pressure (altimeter): 29.62 inches Hg (1003.0 mb)
Winds: from the S (190 degrees) at 16 MPH (14 knots; 7.2 m/s)
Visibility: 1.24 miles (2.00 km)
Ceiling: 8000 feet AGL
Clouds: few clouds at 1700 feet AGL
scattered clouds at 1800 feet AGL
overcast cloud deck at 8000 feet AGL
Weather: RA  (moderate rain)

METAR text: RPLI 240100Z 20013KT 2000 TSRA SCT017CB BKN018 OVC080 25/25 Q1004 RMK A2965 CB N
Conditions at: RPLI (LAOAG INTL(PH-AR, PH) observed 0100 UTC 24 August 2019
Temperature: 25.0°C (77°F)
Dewpoint: 25.0°C (77°F) [RH = 100%]
Pressure (altimeter): 29.65 inches Hg (1004.0 mb)
Winds: from the SSW (200 degrees) at 15 MPH (13 knots; 6.7 m/s)
Visibility: 1.24 miles (2.00 km)
Ceiling: 1800 feet AGL
Clouds: scattered clouds at 1700 feet AGL
broken clouds at 1800 feet AGL
overcast cloud deck at 8000 feet AGL
Weather: TSRA  (rain associated with thunderstorm(s))

METAR text: RPLI 240000Z 22013KT 2000 TSRA FEW016CB BKN017 OVC080 26/25 Q1003 RMK A2962 CB N/W
Conditions at: RPLI (LAOAG INTL(PH-AR, PH) observed 0000 UTC 24 August 2019
Temperature: 26.0°C (79°F)
Dewpoint: 25.0°C (77°F) [RH = 94%]
Pressure (altimeter): 29.62 inches Hg (1003.0 mb)
Winds: from the SW (220 degrees) at 15 MPH (13 knots; 6.7 m/s)
Visibility: 1.24 miles (2.00 km)
Ceiling: 1700 feet AGL
Clouds: few clouds at 1600 feet AGL
broken clouds at 1700 feet AGL
overcast cloud deck at 8000 feet AGL
Weather: TSRA  (rain associated with thunderstorm(s))

METAR text: RPLI 232300Z 21012KT 3000 RA BKN017 OVC080 26/26 Q1003 RMK A2962
Conditions at: RPLI (LAOAG INTL(PH-AR, PH) observed 2300 UTC 23 August 2019
Temperature: 26.0°C (79°F)
Dewpoint: 26.0°C (79°F) [RH = 100%]
Pressure (altimeter): 29.62 inches Hg (1003.0 mb)
Winds: from the SSW (210 degrees) at 14 MPH (12 knots; 6.2 m/s)
Visibility: 1.86 miles (2.99 km)
Ceiling: 1700 feet AGL
Clouds: broken clouds at 1700 feet AGL
overcast cloud deck at 8000 feet AGL
Weather: RA  (moderate rain)

METAR text: RPLI 232200Z 24012KT 200V270 2000 RA BKN017 OVC080 26/26 Q1002 RETS RMK A2959
Conditions at: RPLI (LAOAG INTL(PH-AR, PH) observed 2200 UTC 23 August 2019
Temperature: 26.0°C (79°F)
Dewpoint: 26.0°C (79°F) [RH = 100%]
Pressure (altimeter): 29.59 inches Hg (1002.0 mb)
Winds: from the WSW (240 degrees) at 14 MPH (12 knots; 6.2 m/s)
Visibility: 1.24 miles (2.00 km)
Ceiling: 1700 feet AGL
Clouds: broken clouds at 1700 feet AGL
overcast cloud deck at 8000 feet AGL
Weather: RA  (moderate rain)

METAR text: RPLI 232100Z 16006KT 100V230 2000 TSRA FEW016CB BKN017 OVC080 25/25 Q1002 RMK A2959 CB W AND SE
Conditions at: RPLI (LAOAG INTL(PH-AR, PH) observed 2100 UTC 23 August 2019
Temperature: 25.0°C (77°F)
Dewpoint: 25.0°C (77°F) [RH = 100%]
Pressure (altimeter): 29.59 inches Hg (1002.0 mb)
Winds: from the SSE (160 degrees) at 7 MPH (6 knots; 3.1 m/s)
Visibility: 1.24 miles (2.00 km)
Ceiling: 1700 feet AGL
Clouds: few clouds at 1600 feet AGL
broken clouds at 1700 feet AGL
overcast cloud deck at 8000 feet AGL
Weather: TSRA  (rain associated with thunderstorm(s))

METAR text: RPLI 231800Z 24008KT 210V310 2000 R19/P2000N TSRA FEW016CB BKN017 OVC080 26/26 Q1001 RMK A2956 CB N
Conditions at: RPLI (LAOAG INTL(PH-AR, PH) observed 1800 UTC 23 August 2019
Temperature: 26.0°C (79°F)
Dewpoint: 26.0°C (79°F) [RH = 100%]
Pressure (altimeter): 29.56 inches Hg (1001.0 mb)
Winds: from the WSW (240 degrees) at 9 MPH (8 knots; 4.1 m/s)
Visibility: 1.24 miles (2.00 km)
Ceiling: 1700 feet AGL
Clouds: few clouds at 1600 feet AGL
broken clouds at 1700 feet AGL
overcast cloud deck at 8000 feet AGL
Weather: TSRA  (rain associated with thunderstorm(s))

METAR text: RPLI 231500Z 17006KT 140V200 1000 R19/P2000N +TSRA FEW016CB BKN017 OVC070 25/25 Q1003 RMK A2962 CB SW NW-N
Conditions at: RPLI (LAOAG INTL(PH-AR, PH) observed 1500 UTC 23 August 2019
Temperature: 25.0°C (77°F)
Dewpoint: 25.0°C (77°F) [RH = 100%]
Pressure (altimeter): 29.62 inches Hg (1003.0 mb)
Winds: from the S (170 degrees) at 7 MPH (6 knots; 3.1 m/s)
Visibility: 0.62 miles (1.00 km)
Ceiling: 1700 feet AGL
Clouds: few clouds at 1600 feet AGL
broken clouds at 1700 feet AGL
overcast cloud deck at 7000 feet AGL
Weather: +TSRA  (heavy rain associated with thunderstorm(s))

METAR text: RPLI 231238Z 16008KT 090V180 1000 R19/P2000N +TSRA SCT016CB BKN017 OVC070 25/25 Q1003 RMK A2962 CB NE-SE
Conditions at: RPLI (LAOAG INTL(PH-AR, PH) observed 1238 UTC 23 August 2019
Temperature: 25.0°C (77°F)
Dewpoint: 25.0°C (77°F) [RH = 100%]
Pressure (altimeter): 29.62 inches Hg (1003.0 mb)
Winds: from the SSE (160 degrees) at 9 MPH (8 knots; 4.1 m/s)
Visibility: 0.62 miles (1.00 km)
Ceiling: 1700 feet AGL
Clouds: scattered clouds at 1600 feet AGL
broken clouds at 1700 feet AGL
overcast cloud deck at 7000 feet AGL
Weather: +TSRA  (heavy rain associated with thunderstorm(s))

METAR text: RPLI 231200Z 12005KT 090V170 4000 -TSRA SCT016CB BKN017 OVC070 25/25 Q1003 RMK A2962 CB NE-E/W-NW
Conditions at: RPLI (LAOAG INTL(PH-AR, PH) observed 1200 UTC 23 August 2019
Temperature: 25.0°C (77°F)
Dewpoint: 25.0°C (77°F) [RH = 100%]
Pressure (altimeter): 29.62 inches Hg (1003.0 mb)
Winds: from the ESE (120 degrees) at 6 MPH (5 knots; 2.6 m/s)
Visibility: 2.49 miles (4.01 km)
Ceiling: 1700 feet AGL
Clouds: scattered clouds at 1600 feet AGL
broken clouds at 1700 feet AGL
overcast cloud deck at 7000 feet AGL
Weather: -TSRA  (light rain associated with thunderstorm(s))

METAR text: RPLI 231100Z 28007KT 250V330 4000 -TSRA SCT016CB BKN017 OVC070 27/26 Q1003 RMK A2962 CB OHD
Conditions at: RPLI (LAOAG INTL(PH-AR, PH) observed 1100 UTC 23 August 2019
Temperature: 27.0°C (81°F)
Dewpoint: 26.0°C (79°F) [RH = 94%]
Pressure (altimeter): 29.62 inches Hg (1003.0 mb)
Winds: from the W (280 degrees) at 8 MPH (7 knots; 3.6 m/s)
Visibility: 2.49 miles (4.01 km)
Ceiling: 1700 feet AGL
Clouds: scattered clouds at 1600 feet AGL
broken clouds at 1700 feet AGL
overcast cloud deck at 7000 feet AGL
Weather: -TSRA  (light rain associated with thunderstorm(s))

METAR text: RPLI 231000Z 29006KT 260V330 1000 +TSRA SCT016CB BKN017 OVC070 26/26 Q1003 RMK A2962 CB SW-W, NW-NE
Conditions at: RPLI (LAOAG INTL(PH-AR, PH) observed 1000 UTC 23 August 2019
Temperature: 26.0°C (79°F)
Dewpoint: 26.0°C (79°F) [RH = 100%]
Pressure (altimeter): 29.62 inches Hg (1003.0 mb)
Winds: from the WNW (290 degrees) at 7 MPH (6 knots; 3.1 m/s)
Visibility: 0.62 miles (1.00 km)
Ceiling: 1700 feet AGL
Clouds: scattered clouds at 1600 feet AGL
broken clouds at 1700 feet AGL
overcast cloud deck at 7000 feet AGL
Weather: +TSRA  (heavy rain associated with thunderstorm(s))

METAR text: RPLI 230900Z 34009KT 310V010 2000 R19/P2000N +TSRA FEW017CB BKN018 OVC070 25/25 Q1002 RMK A2959 CB W-NW
Conditions at: RPLI (LAOAG INTL(PH-AR, PH) observed 0900 UTC 23 August 2019
Temperature: 25.0°C (77°F)
Dewpoint: 25.0°C (77°F) [RH = 100%]
Pressure (altimeter): 29.59 inches Hg (1002.0 mb)
Winds: from the NNW (340 degrees) at 10 MPH (9 knots; 4.6 m/s)
Visibility: 1.24 miles (2.00 km)
Ceiling: 1800 feet AGL
Clouds: few clouds at 1700 feet AGL
broken clouds at 1800 feet AGL
overcast cloud deck at 7000 feet AGL
Weather: +TSRA  (heavy rain associated with thunderstorm(s))

METAR text: RPLI 230800Z VRB04KT 0500 R19/1400D +TSRA SCT016CB BKN017 OVC070 26/26 Q1002 RMK A2959 CB SW,NW-N
Conditions at: RPLI (LAOAG INTL(PH-AR, PH) observed 0800 UTC 23 August 2019
Temperature: 26.0°C (79°F)
Dewpoint: 26.0°C (79°F) [RH = 100%]
Pressure (altimeter): 29.59 inches Hg (1002.0 mb)
Winds: variable direction winds at 5 MPH (4 knots; 2.1 m/s)
Visibility: 0.31 miles (0.50 km)
Ceiling: 1700 feet AGL
Clouds: scattered clouds at 1600 feet AGL
broken clouds at 1700 feet AGL
overcast cloud deck at 7000 feet AGL
Weather: +TSRA  (heavy rain associated with thunderstorm(s))

METAR text: RPLI 230735Z 22011KT 0500 +TSRA SCT017CB BKN018 OVC070 27/26 Q1002 RMK A2959 CB NW-NE
Conditions at: RPLI (LAOAG INTL(PH-AR, PH) observed 0735 UTC 23 August 2019
Temperature: 27.0°C (81°F)
Dewpoint: 26.0°C (79°F) [RH = 94%]
Pressure (altimeter): 29.59 inches Hg (1002.0 mb)
Winds: from the SW (220 degrees) at 13 MPH (11 knots; 5.7 m/s)
Visibility: 0.31 miles (0.50 km)
Ceiling: 1800 feet AGL
Clouds: scattered clouds at 1700 feet AGL
broken clouds at 1800 feet AGL
overcast cloud deck at 7000 feet AGL
Weather: +TSRA  (heavy rain associated with thunderstorm(s))

METAR text: RPLI 230700Z 23010KT 2000 TSRA BKN017CB OVC070 27/26 Q1002 RMK A2959 CB N
Conditions at: RPLI (LAOAG INTL(PH-AR, PH) observed 0700 UTC 23 August 2019
Temperature: 27.0°C (81°F)
Dewpoint: 26.0°C (79°F) [RH = 94%]
Pressure (altimeter): 29.59 inches Hg (1002.0 mb)
Winds: from the SW (230 degrees) at 12 MPH (10 knots; 5.1 m/s)
Visibility: 1.24 miles (2.00 km)
Ceiling: 1700 feet AGL
Clouds: broken clouds at 1700 feet AGL
overcast cloud deck at 7000 feet AGL
Weather: TSRA  (rain associated with thunderstorm(s))

METAR text: RPLI 230600Z 23012KT 6000 -RA FEW017CB SCT018 BKN080 28/26 Q1003 NOSIG RMK A2962 CB N
Conditions at: RPLI (LAOAG INTL(PH-AR, PH) observed 0600 UTC 23 August 2019
Temperature: 28.0°C (82°F)
Dewpoint: 26.0°C (79°F) [RH = 89%]
Pressure (altimeter): 29.62 inches Hg (1003.0 mb)
Winds: from the SW (230 degrees) at 14 MPH (12 knots; 6.2 m/s)
Visibility: 4 miles ( 6 km)
Ceiling: 8000 feet AGL
Clouds: few clouds at 1700 feet AGL
scattered clouds at 1800 feet AGL
broken clouds at 8000 feet AGL
Weather: -RA  (light rain)

METAR text: RPLI 230500Z 23011KT 200V260 9999 FEW017CB SCT018 BKN090 29/26 Q1004 NOSIG RMK A2965 CB N
Conditions at: RPLI (LAOAG INTL(PH-AR, PH) observed 0500 UTC 23 August 2019
Temperature: 29.0°C (84°F)
Dewpoint: 26.0°C (79°F) [RH = 84%]
Pressure (altimeter): 29.65 inches Hg (1004.0 mb)
Winds: from the SW (230 degrees) at 13 MPH (11 knots; 5.7 m/s)
Visibility: 6 or more miles (10+ km)
Ceiling: 9000 feet AGL
Clouds: few clouds at 1700 feet AGL
scattered clouds at 1800 feet AGL
broken clouds at 9000 feet AGL
Weather: no significant weather observed at this time

METAR text: RPLI 230400Z 23011KT 9999 SCT018 BKN090 29/26 Q1005 NOSIG RMK A2968
Conditions at: RPLI (LAOAG INTL(PH-AR, PH) observed 0400 UTC 23 August 2019
Temperature: 29.0°C (84°F)
Dewpoint: 26.0°C (79°F) [RH = 84%]
Pressure (altimeter): 29.68 inches Hg (1005.0 mb)
Winds: from the SW (230 degrees) at 13 MPH (11 knots; 5.7 m/s)
Visibility: 6 or more miles (10+ km)
Ceiling: 9000 feet AGL
Clouds: scattered clouds at 1800 feet AGL
broken clouds at 9000 feet AGL
Weather: no significant weather observed at this time

METAR text: RPLI 230300Z 24009KT 200V270 9999 FEW018TCU SCT090 BKN280 29/26 Q1006 NOSIG RMK A2971 TCU W
Conditions at: RPLI (LAOAG INTL(PH-AR, PH) observed 0300 UTC 23 August 2019
Temperature: 29.0°C (84°F)
Dewpoint: 26.0°C (79°F) [RH = 84%]
Pressure (altimeter): 29.70 inches Hg (1006.0 mb)
Winds: from the WSW (240 degrees) at 10 MPH (9 knots; 4.6 m/s)
Visibility: 6 or more miles (10+ km)
Ceiling: 28000 feet AGL
Clouds: few clouds at 1800 feet AGL
scattered clouds at 9000 feet AGL
broken clouds at 28000 feet AGL
Weather: no significant weather observed at this time

Forecast for: RPLI (LAOAG INTL(PH-AR, PH)
Text: TAF RPLI 241100Z 2412/2512 22010KT 9999 SCT018 BKN090
Forecast period: 1200 UTC 24 August 2019 to 1200 UTC 25 August 2019
Forecast type: FROM: standard forecast or significant change
Winds: from the SW (220 degrees) at 12 MPH (10 knots; 5.1 m/s)
Visibility: 6 or more miles 10+ km)
Ceiling: 9000 feet AGL
Clouds: scattered clouds at 1800 feet AGL
broken clouds at 9000 feet AGL
Weather: no significant weather forecast for this period
Text: TEMPO 2412/2418 17014KT 7000 -RA FEW017CB BKN018 OVC070
Forecast period: 1200 to 1800 UTC 24 August 2019
Forecast type: TEMPORARY: The following changes expected for less than half the time period
Winds: from the S (170 degrees) at 16 MPH (14 knots; 7.2 m/s)
Visibility: 4 miles (7 km)
Ceiling: 1800 feet AGL
Clouds: few clouds at 1700 feet AGL
broken clouds at 1800 feet AGL
overcast cloud deck at 7000 feet AGL
Weather: -RA  (light rain)